Time;durP1;ratioP1;P1;durP2;ratioP2;P2;SDS_P1;SDS_P2;PMS_P1;PMS_P2;Temp;Humidity;BMP_temperature;BMP_pressure;BME280_temperature;BME280_humidity;BME280_pressure;Samples;Min_cycle;Max_cycle;Signal;HPM_P1;HPM_P2
2021/03/07 00:00:33;;;;;;;17.23;7.10;;;;;;;-2.31;49.79;98389.53;1694819;85;21272;-75
2021/03/07 00:03:04;;;;;;;12.90;6.50;;;;;;;-2.32;49.80;98389.98;1694933;84;21544;-76
2021/03/07 00:05:32;;;;;;;13.93;6.57;;;;;;;-2.30;49.81;98382.20;1694697;85;21150;-76
2021/03/07 00:08:00;;;;;;;13.53;6.33;;;;;;;-2.32;49.73;98382.68;1694821;85;21181;-74
2021/03/07 00:10:29;;;;;;;17.17;6.57;;;;;;;-2.32;49.76;98378.35;1694451;85;21118;-75
2021/03/07 00:12:56;;;;;;;11.50;5.50;;;;;;;-2.32;49.73;98384.81;1694509;84;21158;-75
2021/03/07 00:15:23;;;;;;;15.27;7.57;;;;;;;-2.34;49.82;98379.24;1694847;84;21603;-74
2021/03/07 00:17:52;;;;;;;15.63;6.60;;;;;;;-2.36;49.82;98378.81;1692542;85;21169;-75
2021/03/07 00:20:22;;;;;;;13.30;6.47;;;;;;;-2.37;49.79;98378.39;1695507;85;21595;-76
2021/03/07 00:22:54;;;;;;;11.83;6.50;;;;;;;-2.37;49.78;98377.09;1695276;85;21567;-75
2021/03/07 00:25:21;;;;;;;13.93;6.80;;;;;;;-2.43;49.73;98374.58;1642823;86;21137;-75
2021/03/07 00:27:51;;;;;;;12.77;6.50;;;;;;;-2.47;49.79;98373.31;1666865;86;21144;-75
2021/03/07 00:30:19;;;;;;;13.80;6.80;;;;;;;-2.50;49.94;98371.59;1666632;86;21162;-76
2021/03/07 00:32:47;;;;;;;13.93;6.43;;;;;;;-2.49;49.88;98371.17;1667078;86;21164;-74
2021/03/07 00:35:18;;;;;;;11.80;6.23;;;;;;;-2.50;50.10;98370.30;1667588;85;21156;-75
2021/03/07 00:37:45;;;;;;;13.83;7.07;;;;;;;-2.56;50.03;98367.36;1685642;85;21332;-76
2021/03/07 00:40:14;;;;;;;14.50;6.83;;;;;;;-2.58;50.02;98370.37;1720414;83;21164;-74
2021/03/07 00:42:45;;;;;;;13.87;6.70;;;;;;;-2.61;50.09;98372.13;1699766;83;21165;-74
2021/03/07 00:45:16;;;;;;;12.43;6.50;;;;;;;-2.62;50.10;98359.63;1719903;83;21149;-75
2021/03/07 00:47:44;;;;;;;14.97;6.60;;;;;;;-2.62;50.12;98359.63;1719573;83;21160;-73
2021/03/07 00:50:17;;;;;;;12.50;6.67;;;;;;;-2.63;50.04;98357.07;1719500;83;21149;-74
2021/03/07 00:52:44;;;;;;;11.50;6.20;;;;;;;-2.63;50.18;98355.33;1716178;82;21132;-75
2021/03/07 00:55:11;;;;;;;12.73;6.67;;;;;;;-2.64;50.10;98356.20;1693171;84;21338;-73
2021/03/07 00:57:39;;;;;;;15.53;7.10;;;;;;;-2.62;50.12;98353.17;1701995;84;21190;-76
2021/03/07 01:00:20;;;;;;;11.73;6.00;;;;;;;-2.62;50.09;98349.30;1701904;84;21297;-75
2021/03/07 01:02:47;;;;;;;13.50;6.03;;;;;;;-2.62;50.02;98348.46;1701672;84;21233;-76
2021/03/07 01:05:18;;;;;;;13.50;6.20;;;;;;;-2.63;49.97;98345.45;1701821;84;21309;-75
2021/03/07 01:07:46;;;;;;;13.77;6.07;;;;;;;-2.67;50.00;98342.88;1702064;84;21170;-74
2021/03/07 01:10:21;;;;;;;11.53;5.50;;;;;;;-2.67;49.97;98344.63;1706114;84;21140;-75
2021/03/07 01:12:51;;;;;;;13.78;6.28;;;;;;;-2.70;50.06;98342.05;1750840;82;21144;-73
2021/03/07 01:15:24;;;;;;;9.73;5.60;;;;;;;-2.74;50.13;98338.64;1750259;82;21172;-74
2021/03/07 01:17:51;;;;;;;8.33;4.87;;;;;;;-2.75;50.08;98337.37;1750442;82;21259;-74
2021/03/07 01:20:19;;;;;;;10.93;5.37;;;;;;;-2.76;50.10;98334.36;1750501;82;21314;-74
2021/03/07 01:22:49;;;;;;;10.57;5.63;;;;;;;-2.79;50.07;98337.83;1713027;83;21346;-75
2021/03/07 01:25:22;;;;;;;11.87;5.17;;;;;;;-2.79;50.11;98327.50;1749845;82;21100;-75
2021/03/07 01:27:49;;;;;;;10.27;4.93;;;;;;;-2.79;50.23;98322.76;1748322;82;21645;-74
2021/03/07 01:30:21;;;;;;;10.70;5.33;;;;;;;-2.82;50.10;98310.30;1743631;82;21303;-75
2021/03/07 01:32:48;;;;;;;8.60;5.00;;;;;;;-2.85;50.07;98313.33;1744007;82;21129;-74
2021/03/07 01:35:17;;;;;;;12.70;5.27;;;;;;;-2.85;50.22;98307.75;1739581;82;21124;-75
2021/03/07 01:37:44;;;;;;;13.77;5.30;;;;;;;-2.87;50.29;98311.19;1744551;82;21171;-76
2021/03/07 01:40:23;;;;;;;11.23;5.80;;;;;;;-2.89;50.29;98300.05;1746907;82;21703;-76
2021/03/07 01:42:53;;;;;;;12.47;5.70;;;;;;;-2.89;50.33;98292.30;1747920;82;21151;-75
2021/03/07 01:45:22;;;;;;;8.17;4.97;;;;;;;-2.90;50.25;98295.30;1748810;82;21143;-75
2021/03/07 01:47:53;;;;;;;9.43;5.40;;;;;;;-2.93;50.17;98290.17;1748068;82;21147;-75
2021/03/07 01:50:24;;;;;;;11.07;5.13;;;;;;;-2.93;50.29;98285.02;1752340;82;21278;-75
2021/03/07 01:52:53;;;;;;;9.97;4.80;;;;;;;-2.94;50.18;98285.01;1752202;82;21184;-75
2021/03/07 01:55:27;;;;;;;11.20;5.37;;;;;;;-2.95;50.26;98282.88;1752024;82;21302;-74
2021/03/07 01:58:22;;;;;;;12.90;5.43;;;;;;;-2.97;50.20;98290.21;1749345;82;21584;-75
2021/03/07 02:00:51;;;;;;;8.97;4.67;;;;;;;-3.00;50.21;98279.45;1728278;83;21163;-76
2021/03/07 02:03:19;;;;;;;9.43;5.00;;;;;;;-3.01;50.21;98282.90;1699392;83;21639;-75
2021/03/07 02:05:48;;;;;;;12.37;5.30;;;;;;;-3.02;50.17;98287.22;1694110;85;21148;-75
2021/03/07 02:08:40;;;;;;;10.23;5.10;;;;;;;-3.02;50.21;98278.63;1722273;83;21246;-74
2021/03/07 02:11:07;;;;;;;11.00;5.50;;;;;;;-3.05;50.18;98278.19;1676513;83;21165;-76
2021/03/07 02:13:38;;;;;;;8.30;4.87;;;;;;;-3.09;50.17;98271.36;1722397;83;21169;-75
2021/03/07 02:16:15;;;;;;;11.47;4.87;;;;;;;-3.08;50.22;98274.78;1722363;83;21190;-75
2021/03/07 02:18:46;;;;;;;10.23;5.27;;;;;;;-3.09;50.28;98267.91;1722957;83;21158;-73
2021/03/07 02:24:28;;;;;;;10.50;5.80;;;;;;;-3.11;50.33;98264.50;1780973;79;24720;-74
2021/03/07 02:26:57;;;;;;;12.03;4.80;;;;;;;-3.17;50.38;98263.66;1754627;81;21156;-76
2021/03/07 02:29:24;;;;;;;12.83;5.07;;;;;;;-3.21;50.41;98258.53;1755384;81;21140;-76
2021/03/07 02:32:09;;;;;;;9.57;4.70;;;;;;;-3.25;50.50;98261.56;1755797;82;21120;-75
2021/03/07 02:34:47;;;;;;;9.17;5.00;;;;;;;-3.27;50.49;98266.31;1755229;81;21159;-74
2021/03/07 02:37:21;;;;;;;11.13;5.30;;;;;;;-3.26;50.53;98266.74;1755121;82;21160;-74
2021/03/07 02:39:53;;;;;;;10.20;5.13;;;;;;;-3.24;50.50;98261.12;1755424;81;21101;-75
2021/03/07 02:42:26;;;;;;;8.63;4.30;;;;;;;-3.24;50.46;98261.12;1725920;82;21569;-76
2021/03/07 02:45:05;;;;;;;10.50;4.93;;;;;;;-3.29;50.63;98254.70;1754906;82;21180;-76
2021/03/07 02:47:36;;;;;;;10.87;5.20;;;;;;;-3.33;50.54;98267.20;1754252;82;21132;-73
2021/03/07 02:50:12;;;;;;;10.20;4.87;;;;;;;-3.34;50.50;98267.62;1755440;81;21104;-75
2021/03/07 02:52:45;;;;;;;9.13;4.80;;;;;;;-3.40;50.54;98261.67;1755778;81;21128;-75
2021/03/07 02:55:14;;;;;;;8.47;4.87;;;;;;;-3.38;50.65;98262.48;1755249;82;21124;-75
2021/03/07 02:57:46;;;;;;;10.33;4.37;;;;;;;-3.40;50.56;98269.41;1734928;81;21124;-74
2021/03/07 03:00:15;;;;;;;7.53;4.57;;;;;;;-3.41;50.67;98269.81;1724879;83;21561;-75
2021/03/07 03:02:44;;;;;;;8.80;4.60;;;;;;;-3.47;50.66;98269.41;1725089;82;21306;-75
2021/03/07 03:05:13;;;;;;;8.03;4.20;;;;;;;-3.45;50.83;98272.00;1724813;83;21562;-75
2021/03/07 03:08:13;;;;;;;8.50;4.60;;;;;;;-3.48;50.69;98269.43;1726428;82;21108;-75
2021/03/07 03:10:41;;;;;;;8.57;4.40;;;;;;;-3.47;50.94;98270.70;1724244;83;21293;-74
2021/03/07 03:13:41;;;;;;;9.67;4.57;;;;;;;-3.46;51.00;98267.27;1694058;85;21160;-75
2021/03/07 03:16:11;;;;;;;8.97;4.67;;;;;;;-3.47;50.90;98263.41;1686180;85;21167;-75
2021/03/07 03:18:41;;;;;;;8.83;4.43;;;;;;;-3.52;51.04;98262.15;1686487;84;21148;-74
2021/03/07 03:21:12;;;;;;;9.67;4.80;;;;;;;-3.54;50.95;98260.00;1685826;85;21132;-75
2021/03/07 03:23:43;;;;;;;10.40;5.00;;;;;;;-3.61;51.04;98257.88;1678227;84;21553;-74
2021/03/07 03:26:11;;;;;;;10.93;4.97;;;;;;;-3.65;51.04;98262.64;1673598;86;21172;-75
2021/03/07 03:28:40;;;;;;;7.63;4.63;;;;;;;-3.69;51.26;98257.06;1673902;86;21155;-74
2021/03/07 03:31:08;;;;;;;9.23;4.50;;;;;;;-3.70;51.37;98259.66;1686095;84;21546;-74
2021/03/07 03:33:36;;;;;;;9.17;4.63;;;;;;;-3.71;51.40;98256.66;1701884;84;21168;-75
2021/03/07 03:36:05;;;;;;;8.00;3.87;;;;;;;-3.69;51.29;98257.06;1701343;84;21151;-75
2021/03/07 03:38:42;;;;;;;7.57;4.17;;;;;;;-3.70;51.29;98257.92;1701551;84;21517;-74
2021/03/07 03:41:11;;;;;;;8.30;4.57;;;;;;;-3.68;51.35;98256.65;1700793;84;21148;-75
2021/03/07 03:43:42;;;;;;;7.30;3.80;;;;;;;-3.65;51.42;98256.61;1697612;84;21164;-75
2021/03/07 03:46:11;;;;;;;4.80;2.23;;;;;;;-3.65;51.31;98261.36;1701756;84;21137;-75
2021/03/07 03:48:40;;;;;;;8.10;4.00;;;;;;;-3.66;51.43;98260.05;1701807;84;21129;-74
2021/03/07 03:51:11;;;;;;;7.57;4.10;;;;;;;-3.68;51.31;98250.20;1672110;84;21209;-74
2021/03/07 03:53:40;;;;;;;9.40;4.03;;;;;;;-3.68;51.25;98256.65;1701500;84;21161;-72
2021/03/07 03:56:10;;;;;;;9.90;4.30;;;;;;;-3.69;51.38;98251.91;1668874;84;21570;-74
2021/03/07 03:58:41;;;;;;;6.73;3.47;;;;;;;-3.69;51.28;98249.78;1673604;86;21341;-76
2021/03/07 04:01:11;;;;;;;6.90;3.53;;;;;;;-3.67;51.39;98242.91;1644639;86;21177;-75
2021/03/07 04:04:18;;;;;;;;;;;;;;;;;;;;;
2021/03/07 04:06:50;;;;;;;8.93;4.00;;;;;;;-3.63;51.31;98233.86;1681621;84;21548;-74
2021/03/07 04:09:19;;;;;;;4.73;2.43;;;;;;;-3.64;51.33;98228.69;1701580;84;21271;-74
2021/03/07 04:11:48;;;;;;;8.63;3.27;;;;;;;-3.66;51.31;98226.55;1701430;84;21274;-74
2021/03/07 04:14:18;;;;;;;6.50;3.57;;;;;;;-3.67;51.35;98223.13;1701317;84;21566;-75
2021/03/07 04:16:51;;;;;;;7.47;4.10;;;;;;;-3.69;51.21;98231.30;1701278;84;21181;-75
2021/03/07 04:19:19;;;;;;;6.40;3.60;;;;;;;-3.69;51.37;98225.30;1701112;84;21161;-74
2021/03/07 04:21:47;;;;;;;9.17;4.00;;;;;;;-3.75;51.22;98222.31;1700444;84;21152;-73
2021/03/07 04:24:16;;;;;;;8.63;4.00;;;;;;;-3.76;51.51;98229.17;1702278;83;21176;-74
2021/03/07 04:26:44;;;;;;;9.63;4.83;;;;;;;-3.75;51.51;98223.60;1702456;84;21180;-73
2021/03/07 04:29:12;;;;;;;16.47;4.07;;;;;;;-3.74;51.59;98225.31;1662052;85;21164;-74
2021/03/07 04:31:41;;;;;;;9.77;4.80;;;;;;;-3.72;51.30;98222.30;1674564;86;21160;-76
2021/03/07 04:37:44;;;;;;;11.17;4.23;;;;;;;-3.80;51.36;98213.31;1638916;86;21189;-75
2021/03/07 04:40:13;;;;;;;7.70;3.63;;;;;;;-3.85;51.49;98211.17;1703578;84;21148;-74
2021/03/07 04:42:43;;;;;;;11.57;4.20;;;;;;;-3.86;51.52;98211.19;1704130;84;21283;-76
2021/03/07 04:45:14;;;;;;;7.23;3.93;;;;;;;-3.82;51.63;98212.45;1705505;84;21137;-74
2021/03/07 04:47:44;;;;;;;7.17;4.10;;;;;;;-3.84;51.68;98212.05;1727529;83;21229;-73
2021/03/07 04:50:14;;;;;;;6.80;3.70;;;;;;;-3.83;51.67;98213.32;1734469;83;21245;-74
2021/03/07 04:53:06;;;;;;;6.60;3.70;;;;;;;-3.89;51.72;98212.07;1734691;82;21122;-75
2021/03/07 04:55:33;;;;;;;7.57;3.80;;;;;;;-3.85;51.73;98215.03;1732692;83;21142;-75
2021/03/07 04:58:01;;;;;;;9.43;4.07;;;;;;;-3.85;51.80;98211.17;1733612;83;21137;-75
2021/03/07 05:00:29;;;;;;;8.27;4.50;;;;;;;-3.83;51.63;98211.19;1733525;83;21547;-75
2021/03/07 05:02:56;;;;;;;6.93;3.80;;;;;;;-3.85;51.69;98209.05;1733504;83;21160;-75
2021/03/07 05:05:24;;;;;;;6.53;3.47;;;;;;;-3.81;52.19;98211.59;1733423;83;21129;-74
2021/03/07 05:07:53;;;;;;;7.47;3.80;;;;;;;-3.82;51.92;98206.46;1733636;82;21141;-74
2021/03/07 05:10:21;;;;;;;8.20;4.00;;;;;;;-3.79;51.98;98200.86;1733354;83;21129;-76
2021/03/07 05:12:48;;;;;;;11.57;3.93;;;;;;;-3.76;51.93;98200.82;1732863;83;21267;-74
2021/03/07 05:15:16;;;;;;;7.70;3.23;;;;;;;-3.72;51.84;98201.69;1732924;83;21614;-74
2021/03/07 05:17:43;;;;;;;8.60;3.80;;;;;;;-3.70;51.82;98196.52;1733727;82;21136;-75
2021/03/07 05:20:13;;;;;;;6.60;3.50;;;;;;;-3.64;51.78;98197.77;1732565;83;21127;-75
2021/03/07 05:22:40;;;;;;;5.77;2.93;;;;;;;-3.57;51.78;98194.72;1732756;82;21140;-73
2021/03/07 05:25:10;;;;;;;5.57;3.40;;;;;;;-3.56;51.73;98190.84;1746829;82;21113;-75
2021/03/07 05:27:40;;;;;;;7.20;3.53;;;;;;;-3.52;51.63;98191.67;1743222;82;21128;-74
2021/03/07 05:30:09;;;;;;;6.47;3.50;;;;;;;-3.48;51.51;98186.94;1742487;81;21646;-75
2021/03/07 05:32:36;;;;;;;6.87;3.20;;;;;;;-3.43;51.35;98186.91;1741707;82;21271;-75
2021/03/07 05:35:09;;;;;;;9.07;3.90;;;;;;;-3.41;51.32;98189.05;1742092;82;21276;-74
2021/03/07 05:37:36;;;;;;;5.43;3.20;;;;;;;-3.38;51.39;98192.88;1718213;82;21634;-75
2021/03/07 05:40:14;;;;;;;7.43;3.63;;;;;;;-3.33;51.38;98186.82;1713224;82;21145;-74
2021/03/07 05:42:43;;;;;;;7.57;3.67;;;;;;;-3.31;51.23;98188.12;1741205;82;21582;-76
2021/03/07 05:45:13;;;;;;;7.17;3.43;;;;;;;-3.27;51.27;98186.37;1739231;82;21137;-75
2021/03/07 05:47:40;;;;;;;5.80;3.30;;;;;;;-3.20;51.23;98190.16;1731720;82;21231;-74
2021/03/07 05:50:10;;;;;;;6.93;3.33;;;;;;;-3.15;51.67;98194.87;1712298;83;21113;-75
2021/03/07 05:52:39;;;;;;;6.07;3.63;;;;;;;-3.00;51.87;98186.57;1711853;84;21184;-75
2021/03/07 05:55:10;;;;;;;8.47;4.20;;;;;;;-2.64;51.62;98192.72;1711556;84;21168;-75
2021/03/07 05:57:38;;;;;;;8.30;4.40;;;;;;;-2.18;50.54;98186.22;1711291;83;21539;-76
2021/03/07 06:00:07;;;;;;;11.90;4.27;;;;;;;-1.76;50.07;98185.26;1711637;84;21177;-76
2021/03/07 06:02:34;;;;;;;8.03;4.43;;;;;;;-1.22;48.80;98188.38;1728648;82;21284;-76
2021/03/07 06:05:02;;;;;;;8.50;4.97;;;;;;;-0.85;48.70;98185.20;1741439;82;21125;-76
2021/03/07 06:07:31;;;;;;;11.33;5.73;;;;;;;-0.49;48.12;98186.73;1741314;82;21240;-76
2021/03/07 06:10:23;;;;;;;9.97;4.80;;;;;;;-0.05;46.91;98185.47;1741378;82;21267;-75
2021/03/07 06:13:05;;;;;;;9.53;4.87;;;;;;;0.36;47.23;98180.73;1722825;82;21121;-77
2021/03/07 06:15:34;;;;;;;13.83;5.43;;;;;;;0.71;46.67;98179.08;1739711;82;21156;-78
2021/03/07 06:18:16;;;;;;;9.33;5.35;;;;;;;0.95;45.25;98175.05;1741807;81;21133;-76
2021/03/07 06:20:48;;;;;;;9.30;5.00;;;;;;;1.21;45.94;98181.34;1742935;82;21299;-77
2021/03/07 06:23:18;;;;;;;9.48;5.28;;;;;;;1.68;44.89;98173.21;1741496;82;21121;-77
2021/03/07 06:25:52;;;;;;;6.80;4.62;;;;;;;2.14;42.75;98166.72;1731388;83;21134;-76
2021/03/07 06:28:29;;;;;;;7.85;4.28;;;;;;;2.58;42.82;98164.98;1731501;82;21109;-76
2021/03/07 06:31:32;;;;;;;9.88;4.75;;;;;;;2.98;41.64;98161.56;1718378;83;21137;-77
2021/03/07 06:34:02;;;;;;;8.25;4.17;;;;;;;3.35;39.99;98157.73;1733886;82;21133;-76
2021/03/07 06:36:31;;;;;;;8.65;4.75;;;;;;;3.69;39.92;98161.77;1733760;83;21153;-77
2021/03/07 06:39:03;;;;;;;8.40;4.78;;;;;;;3.99;39.63;98155.52;1734152;83;21268;-77
2021/03/07 06:41:35;;;;;;;9.20;4.55;;;;;;;4.15;38.88;98152.73;1734372;83;21138;-76
2021/03/07 06:44:13;;;;;;;11.95;4.45;;;;;;;4.48;37.42;98148.43;1729656;82;21248;-77
2021/03/07 06:46:44;;;;;;;10.70;4.78;;;;;;;4.80;36.53;98146.77;1705730;83;21151;-77
2021/03/07 06:49:29;;;;;;;7.83;5.20;;;;;;;5.16;37.09;98143.55;1705340;83;21287;-77
2021/03/07 06:52:20;;;;;;;7.97;5.00;;;;;;;5.51;36.41;98139.94;1705214;84;21177;-76
2021/03/07 06:55:09;;;;;;;7.15;4.42;;;;;;;5.83;35.60;98137.66;1721940;83;21133;-77
2021/03/07 06:57:35;;;;;;;7.90;4.53;;;;;;;5.99;36.04;98135.66;1734496;82;21114;-77
2021/03/07 07:00:06;;;;;;;6.12;4.20;;;;;;;6.36;35.58;98139.23;1734228;83;21140;-78
2021/03/07 07:02:33;;;;;;;7.58;4.47;;;;;;;6.36;35.58;98139.23;1733369;83;21145;-77
2021/03/07 07:05:01;;;;;;;8.23;4.85;;;;;;;6.54;35.07;98140.99;1733995;82;21290;-77
2021/03/07 07:07:29;;;;;;;9.38;4.42;;;;;;;6.72;33.03;98132.73;1733902;82;21741;-76
2021/03/07 07:10:04;;;;;;;8.23;4.83;;;;;;;6.94;33.44;98138.70;1727466;82;21144;-76
2021/03/07 07:12:35;;;;;;;6.53;4.20;;;;;;;7.11;32.88;98120.84;1728767;83;21127;-77
2021/03/07 07:15:14;;;;;;;8.68;4.83;;;;;;;7.65;33.63;98122.05;1716129;83;21564;-77
2021/03/07 07:17:41;;;;;;;7.17;4.70;;;;;;;7.65;33.63;98122.05;1717679;82;21149;-75
2021/03/07 07:20:12;;;;;;;7.30;4.75;;;;;;;7.81;31.99;98117.69;1715458;82;21157;-75
2021/03/07 07:22:39;;;;;;;7.00;4.72;;;;;;;7.88;30.06;98118.22;1720668;83;21571;-75
2021/03/07 07:25:10;;;;;;;9.48;4.22;;;;;;;8.10;32.17;98111.34;1729432;82;21101;-80
2021/03/07 07:27:38;;;;;;;8.50;4.40;;;;;;;8.25;31.31;98107.48;1743505;82;21180;-76
2021/03/07 07:30:07;;;;;;;8.63;4.85;;;;;;;8.41;32.04;98108.81;1740734;82;21176;-76
2021/03/07 07:32:41;;;;;;;8.20;4.20;;;;;;;8.58;32.23;98105.30;1740918;82;21152;-74
2021/03/07 07:35:26;;;;;;;8.95;5.15;;;;;;;8.64;33.01;98101.44;1740581;82;21133;-72
2021/03/07 07:38:00;;;;;;;9.35;4.53;;;;;;;8.63;33.24;98105.86;1740493;82;21106;-75
2021/03/07 07:40:42;;;;;;;7.97;4.75;;;;;;;8.79;33.16;98108.48;1740802;82;21157;-74
2021/03/07 07:43:11;;;;;;;9.20;5.30;;;;;;;8.80;32.35;98108.00;1737795;82;21287;-72
2021/03/07 07:45:39;;;;;;;8.65;5.37;;;;;;;8.81;33.71;98101.81;1741602;82;21144;-78
2021/03/07 07:48:09;;;;;;;7.72;5.03;;;;;;;8.95;32.09;98099.25;1742598;82;21263;-82
2021/03/07 07:50:42;;;;;;;6.45;4.53;;;;;;;8.85;32.03;98094.98;1743564;82;21283;-78
2021/03/07 07:53:31;;;;;;;8.63;4.92;;;;;;;8.57;30.09;98093.08;1742642;82;21298;-79
2021/03/07 07:56:41;;;;;;;8.93;4.50;;;;;;;8.63;31.07;98087.47;1827183;77;26609;-76
2021/03/07 07:59:13;;;;;;;6.87;4.40;;;;;;;8.76;32.94;98082.36;1824415;78;21209;-75
2021/03/07 08:01:53;;;;;;;8.08;4.58;;;;;;;8.81;31.43;98082.95;1741198;82;21133;-76
2021/03/07 08:19:18;;;;;;;11.10;4.35;;;;;;;8.39;28.25;98059.44;1781748;79;25476;-77
2021/03/07 08:27:10;;;;;;;6.08;3.95;;;;;;;7.54;31.10;98058.30;1596843;88;21266;-75
2021/03/07 08:58:43;;;;;;;;;;;;;;;;;;;;;
2021/03/07 09:02:21;;;;;;;;;;;;;;;;;;;;;
2021/03/07 09:05:50;;;;;;;5.08;2.50;;;;;;;6.61;28.84;98015.80;1790657;79;24295;-74
2021/03/07 09:12:04;;;;;;;5.22;2.77;;;;;;;6.58;30.82;98013.36;1767074;81;21143;-75
2021/03/07 09:15:16;;;;;;;6.37;2.83;;;;;;;6.54;30.44;98007.88;1767898;81;21246;-74
2021/03/07 09:19:46;;;;;;;;;;;;;;;;;;;;;
2021/03/07 09:37:29;;;;;;;;;;;;;;;;;;;;;
2021/03/07 09:41:07;;;;;;;6.78;3.00;;;;;;;6.36;27.91;97967.71;1748262;81;21288;-76
2021/03/07 09:44:22;;;;;;;6.83;2.55;;;;;;;6.13;29.27;97968.39;1754336;82;21203;-78
2021/03/07 09:57:40;;;;;;;6.33;3.08;;;;;;;5.58;28.40;97945.20;1743114;80;24393;-74
2021/03/07 10:00:56;;;;;;;4.22;2.80;;;;;;;5.29;27.43;97947.38;1623995;87;21175;-76
2021/03/07 10:03:59;;;;;;;4.80;3.17;;;;;;;5.29;29.56;97934.78;1854058;77;24268;-75
2021/03/07 10:06:23;;;;;;;7.07;3.43;;;;;;;5.27;30.35;97932.69;1829598;78;21728;-74
2021/03/07 10:09:07;;;;;;;6.40;3.08;;;;;;;5.34;30.67;97931.92;1831195;78;21114;-74
2021/03/07 10:11:59;;;;;;;5.12;3.10;;;;;;;5.43;31.13;97928.45;1831284;78;21759;-74
2021/03/07 10:14:31;;;;;;;4.65;2.77;;;;;;;5.58;30.85;97923.41;1830010;78;21260;-74
2021/03/07 10:17:00;;;;;;;5.90;3.15;;;;;;;5.72;30.88;97930.61;1830761;78;21225;-73
2021/03/07 10:20:13;;;;;;;9.70;3.72;;;;;;;5.88;31.06;97924.19;1845397;77;21160;-76
2021/03/07 10:22:44;;;;;;;6.90;3.02;;;;;;;5.93;28.17;97915.67;1862988;77;21305;-74
2021/03/07 10:25:29;;;;;;;4.97;2.98;;;;;;;5.99;30.39;97912.78;1792593;80;21282;-74
2021/03/07 10:28:12;;;;;;;4.95;2.90;;;;;;;5.98;30.55;97909.74;1803320;80;21294;-74
2021/03/07 10:31:18;;;;;;;6.28;2.95;;;;;;;6.05;30.60;97911.16;1794219;80;21353;-74
2021/03/07 10:33:54;;;;;;;5.42;3.00;;;;;;;5.88;29.48;97906.73;1804349;80;21139;-75
2021/03/07 10:37:16;;;;;;;10.20;3.00;;;;;;;5.81;29.99;97910.55;1765462;80;21151;-73
2021/03/07 10:40:32;;;;;;;8.10;3.33;;;;;;;5.91;30.50;97896.09;1803917;80;21313;-74
2021/03/07 10:43:02;;;;;;;4.58;2.70;;;;;;;5.86;28.41;97899.86;1801448;80;21279;-74
2021/03/07 10:45:35;;;;;;;5.35;3.22;;;;;;;5.74;29.78;97894.31;1802496;80;21298;-74
2021/03/07 10:48:13;;;;;;;5.60;3.27;;;;;;;5.60;29.86;97888.44;1800551;80;21234;-73
2021/03/07 10:53:37;;;;;;;2.95;1.85;;;;;;;5.71;29.92;97875.28;1802405;80;21116;-74
2021/03/07 10:56:14;;;;;;;4.60;2.98;;;;;;;5.59;29.15;97867.56;1739281;80;21136;-73
2021/03/07 10:58:48;;;;;;;3.72;2.55;;;;;;;5.52;29.75;97863.08;1775666;80;21319;-74
2021/03/07 11:01:22;;;;;;;4.87;3.20;;;;;;;5.63;30.18;97854.74;1772409;81;21289;-74
2021/03/07 11:07:24;;;;;;;;;;;;;;;;;;;;;
2021/03/07 11:09:55;;;;;;;5.42;3.35;;;;;;;6.11;29.89;97833.27;1753207;81;21153;-74
2021/03/07 11:16:26;;;;;;;6.17;3.83;;;;;;;6.29;29.82;97819.25;1762881;81;21115;-75
2021/03/07 11:20:06;;;;;;;;;;;;;;;6.45;30.04;97819.28;1764304;81;21325;-75
2021/03/07 11:23:22;;;;;;;;;;;;;;;;;;;;;
2021/03/07 11:26:59;;;;;;;;;;;;;;;;;;;;;
2021/03/07 11:30:53;;;;;;;4.90;3.12;;;;;;;6.85;30.35;97787.52;1596580;87;21171;-75
2021/03/07 11:33:43;;;;;;;5.05;3.47;;;;;;;6.99;30.18;97777.59;1646455;87;21203;-75
2021/03/07 11:36:25;;;;;;;5.80;3.95;;;;;;;6.80;27.67;97768.12;1638037;87;21156;-74
2021/03/07 11:39:49;;;;;;;6.40;4.20;;;;;;;6.51;28.48;97746.95;1807770;79;25444;-73
2021/03/07 11:42:28;;;;;;;6.17;4.33;;;;;;;6.52;29.07;97743.41;1835792;78;21121;-75
2021/03/07 11:45:25;;;;;;;7.45;4.10;;;;;;;6.68;29.63;97746.02;1743021;81;21156;-75
2021/03/07 11:48:30;;;;;;;6.65;3.72;;;;;;;6.86;29.77;97727.63;1799183;80;21279;-76
2021/03/07 12:02:39;;;;;;;6.80;4.08;;;;;;;6.93;28.01;97704.08;1804656;79;26653;-75
2021/03/07 12:16:16;;;;;;;5.45;3.75;;;;;;;7.23;27.36;97674.45;1785551;77;22810;-72
2021/03/07 12:33:39;;;;;;;7.28;3.20;;;;;;;7.32;27.70;97639.82;1725892;83;28462;-76
2021/03/07 12:36:49;;;;;;;4.78;3.55;;;;;;;7.23;28.07;97641.67;1703866;83;21140;-76
2021/03/07 12:39:33;;;;;;;3.58;2.67;;;;;;;7.28;28.02;97638.30;1678997;84;21679;-74
2021/03/07 12:42:00;;;;;;;5.92;3.40;;;;;;;7.28;27.63;97633.05;1684175;84;21589;-74
2021/03/07 12:44:30;;;;;;;6.72;3.80;;;;;;;7.25;28.73;97633.22;1657853;86;21285;-75
2021/03/07 12:46:57;;;;;;;7.92;3.95;;;;;;;7.13;27.33;97628.23;1658336;86;21139;-74
2021/03/07 12:49:25;;;;;;;5.50;3.35;;;;;;;7.08;28.41;97618.94;1671873;84;21164;-75
2021/03/07 12:51:55;;;;;;;7.10;4.08;;;;;;;7.15;28.63;97614.57;1684341;85;21192;-75
2021/03/07 12:54:54;;;;;;;6.72;3.90;;;;;;;7.30;28.75;97604.97;1684873;85;21167;-74
2021/03/07 12:57:57;;;;;;;;;;;;;;;;;;;;;
2021/03/07 13:12:50;;;;;;;;;;;;;;;;;;;;;
2021/03/07 13:16:27;;;;;;;3.60;2.33;;;;;;;7.08;28.55;97476.07;1754449;79;21163;-75
2021/03/07 13:20:29;;;;;;;;;;;;;;;;;;;;;
2021/03/07 13:23:26;;;;;;;5.15;3.77;;;;;;;7.14;27.55;97559.62;1779362;79;24765;-74
2021/03/07 13:25:54;;;;;;;5.50;3.72;;;;;;;6.95;28.14;97560.69;1754052;82;21157;-74
2021/03/07 13:28:25;;;;;;;5.20;3.75;;;;;;;6.99;28.64;97557.42;1754209;82;21560;-74
2021/03/07 13:30:53;;;;;;;4.42;3.27;;;;;;;6.98;28.63;97538.70;1754031;82;21167;-74
2021/03/07 13:33:24;;;;;;;5.83;4.08;;;;;;;6.98;28.63;97538.70;1755265;82;21140;-75
2021/03/07 13:40:19;;;;;;;;;;;;;;;;;;;;;
2021/03/07 13:46:49;;;;;;;5.35;3.45;;;;;;;6.94;29.04;97531.48;1570949;91;21196;-76
2021/03/07 13:59:52;;;;;;;7.05;4.35;;;;;;;7.15;28.98;97511.46;1748347;81;24163;-73
2021/03/07 14:02:38;;;;;;;6.75;4.10;;;;;;;7.17;29.60;97514.39;1709475;81;21734;-75
2021/03/07 14:05:07;;;;;;;8.73;4.20;;;;;;;7.23;29.55;97511.88;1723411;82;21138;-74
2021/03/07 14:07:36;;;;;;;7.90;3.90;;;;;;;7.24;29.72;97504.36;1729760;83;21187;-74
2021/03/07 14:31:58;;;;;;;8.65;4.47;;;;;;;7.09;29.16;97468.13;1775117;77;27917;-74
2021/03/07 14:34:51;;;;;;;6.60;4.22;;;;;;;6.96;29.68;97472.41;1754106;81;21181;-73
2021/03/07 14:37:20;;;;;;;10.63;4.12;;;;;;;6.94;30.22;97454.62;1743007;81;21575;-72
2021/03/07 14:43:30;;;;;;;7.47;4.47;;;;;;;6.91;29.82;97457.44;1731918;81;21185;-73
2021/03/07 14:45:59;;;;;;;6.37;4.17;;;;;;;6.88;30.23;97446.65;1732386;81;21185;-78
2021/03/07 14:48:27;;;;;;;7.15;3.75;;;;;;;6.88;30.18;97446.65;1733518;81;21157;-73
2021/03/07 14:50:54;;;;;;;5.33;3.83;;;;;;;6.85;30.01;97439.83;1739661;81;21134;-73
2021/03/07 14:53:24;;;;;;;5.45;3.67;;;;;;;6.81;30.34;97434.86;1737041;81;21177;-72
2021/03/07 14:55:52;;;;;;;5.87;3.87;;;;;;;6.81;29.92;97432.23;1733647;81;21176;-73
2021/03/07 14:58:20;;;;;;;6.20;3.83;;;;;;;6.78;30.25;97434.58;1719330;83;22838;-75
2021/03/07 15:00:48;;;;;;;6.10;4.03;;;;;;;6.70;29.86;97422.41;1712368;82;21177;-73
2021/03/07 15:03:16;;;;;;;6.70;4.28;;;;;;;6.63;30.38;97421.92;1719331;83;21606;-72
2021/03/07 15:05:43;;;;;;;6.37;4.10;;;;;;;6.63;30.38;97421.92;1715083;83;21145;-76
2021/03/07 15:08:11;;;;;;;7.67;4.37;;;;;;;6.55;30.36;97409.74;1701510;83;21161;-72
2021/03/07 15:10:38;;;;;;;6.17;4.12;;;;;;;6.55;30.36;97409.74;1718141;83;21165;-74
2021/03/07 15:13:06;;;;;;;6.37;4.12;;;;;;;6.50;30.33;97407.40;1718903;83;21126;-74
2021/03/07 15:15:34;;;;;;;6.78;4.40;;;;;;;6.45;30.28;97396.33;1719977;83;21173;-73
2021/03/07 15:18:02;;;;;;;6.35;3.83;;;;;;;6.41;30.48;97391.74;1716960;82;21184;-73
2021/03/07 15:20:30;;;;;;;5.72;4.12;;;;;;;6.39;30.56;97386.23;1720293;83;21161;-73
2021/03/07 15:22:58;;;;;;;6.80;4.53;;;;;;;6.29;30.14;97383.77;1716800;83;21189;-74
2021/03/07 15:25:25;;;;;;;6.78;4.22;;;;;;;6.19;30.25;97383.00;1698150;83;21591;-75
2021/03/07 15:27:54;;;;;;;4.08;2.47;;;;;;;6.14;30.70;97376.34;1716060;83;21181;-72
2021/03/07 15:30:21;;;;;;;8.98;4.00;;;;;;;6.07;30.13;97374.56;1714265;82;21595;-74
2021/03/07 15:32:49;;;;;;;6.53;3.62;;;;;;;5.99;30.27;97379.33;1717830;83;21170;-74
2021/03/07 15:35:17;;;;;;;8.10;4.70;;;;;;;5.88;30.40;97371.66;1701514;83;21193;-75
2021/03/07 15:37:44;;;;;;;5.95;3.77;;;;;;;5.81;30.49;97366.38;1717532;83;21146;-79
2021/03/07 15:40:14;;;;;;;5.92;3.65;;;;;;;5.74;30.55;97375.05;1717750;83;21198;-75
2021/03/07 15:42:41;;;;;;;6.60;3.87;;;;;;;5.65;30.47;97374.27;1718418;82;21170;-77
2021/03/07 15:45:12;;;;;;;11.45;5.70;;;;;;;5.58;30.71;97378.13;1714376;82;21198;-74